sensor_id;sensor_type;location;lat;lon;timestamp;P1;durP1;ratioP1;P2;durP2;ratioP2
37087;SDS011;23002;52.676;6.432;2023-04-24T00:00:20;1.35;;;0.73;;
37087;SDS011;23002;52.676;6.432;2023-04-24T00:02:47;1.48;;;1.05;;
37087;SDS011;23002;52.676;6.432;2023-04-24T00:05:15;1.00;;;0.85;;
37087;SDS011;23002;52.676;6.432;2023-04-24T00:07:44;1.98;;;1.17;;
37087;SDS011;23002;52.676;6.432;2023-04-24T00:10:11;1.33;;;0.95;;
37087;SDS011;23002;52.676;6.432;2023-04-24T00:12:39;1.73;;;1.13;;
37087;SDS011;23002;52.676;6.432;2023-04-24T00:15:06;2.35;;;1.30;;
37087;SDS011;23002;52.676;6.432;2023-04-24T00:17:33;1.80;;;1.20;;
37087;SDS011;23002;52.676;6.432;2023-04-24T00:20:00;2.03;;;1.40;;
37087;SDS011;23002;52.676;6.432;2023-04-24T00:22:30;2.17;;;1.30;;
37087;SDS011;23002;52.676;6.432;2023-04-24T00:24:58;2.38;;;1.30;;
37087;SDS011;23002;52.676;6.432;2023-04-24T00:27:25;2.22;;;1.25;;
37087;SDS011;23002;52.676;6.432;2023-04-24T00:29:52;2.47;;;1.55;;
37087;SDS011;23002;52.676;6.432;2023-04-24T00:32:19;3.17;;;1.40;;
37087;SDS011;23002;52.676;6.432;2023-04-24T00:34:46;2.20;;;1.20;;
37087;SDS011;23002;52.676;6.432;2023-04-24T00:37:13;3.42;;;1.80;;
37087;SDS011;23002;52.676;6.432;2023-04-24T00:39:41;4.90;;;2.10;;
37087;SDS011;23002;52.676;6.432;2023-04-24T00:42:09;3.65;;;1.77;;
37087;SDS011;23002;52.676;6.432;2023-04-24T00:44:37;3.92;;;2.13;;
37087;SDS011;23002;52.676;6.432;2023-04-24T00:47:04;4.05;;;1.88;;
37087;SDS011;23002;52.676;6.432;2023-04-24T00:49:31;3.53;;;1.60;;
37087;SDS011;23002;52.676;6.432;2023-04-24T00:51:58;3.85;;;2.03;;
37087;SDS011;23002;52.676;6.432;2023-04-24T00:54:25;3.03;;;1.60;;
37087;SDS011;23002;52.676;6.432;2023-04-24T00:56:52;3.63;;;1.58;;
37087;SDS011;23002;52.676;6.432;2023-04-24T00:59:19;2.78;;;1.33;;
37087;SDS011;23002;52.676;6.432;2023-04-24T01:01:46;1.95;;;1.20;;
37087;SDS011;23002;52.676;6.432;2023-04-24T01:04:13;3.17;;;1.95;;
37087;SDS011;23002;52.676;6.432;2023-04-24T01:06:41;2.53;;;1.75;;
37087;SDS011;23002;52.676;6.432;2023-04-24T01:09:09;3.83;;;2.15;;
37087;SDS011;23002;52.676;6.432;2023-04-24T01:11:37;3.67;;;2.03;;
37087;SDS011;23002;52.676;6.432;2023-04-24T01:14:04;3.03;;;1.98;;
37087;SDS011;23002;52.676;6.432;2023-04-24T01:16:31;3.47;;;1.73;;
37087;SDS011;23002;52.676;6.432;2023-04-24T01:18:59;3.45;;;1.95;;
37087;SDS011;23002;52.676;6.432;2023-04-24T01:21:26;6.82;;;2.47;;
37087;SDS011;23002;52.676;6.432;2023-04-24T01:23:54;4.40;;;2.40;;
37087;SDS011;23002;52.676;6.432;2023-04-24T01:26:22;4.07;;;2.78;;
37087;SDS011;23002;52.676;6.432;2023-04-24T01:28:51;3.47;;;2.45;;
37087;SDS011;23002;52.676;6.432;2023-04-24T01:31:18;3.33;;;2.47;;
37087;SDS011;23002;52.676;6.432;2023-04-24T01:33:46;4.18;;;2.50;;
37087;SDS011;23002;52.676;6.432;2023-04-24T01:36:13;4.00;;;2.35;;
37087;SDS011;23002;52.676;6.432;2023-04-24T01:38:41;5.65;;;2.20;;
37087;SDS011;23002;52.676;6.432;2023-04-24T01:41:08;3.22;;;2.25;;
37087;SDS011;23002;52.676;6.432;2023-04-24T01:43:35;4.93;;;2.65;;
37087;SDS011;23002;52.676;6.432;2023-04-24T01:46:02;4.70;;;2.28;;
37087;SDS011;23002;52.676;6.432;2023-04-24T01:48:29;5.15;;;2.50;;
37087;SDS011;23002;52.676;6.432;2023-04-24T01:50:56;4.93;;;2.80;;
37087;SDS011;23002;52.676;6.432;2023-04-24T01:53:24;5.28;;;2.70;;
37087;SDS011;23002;52.676;6.432;2023-04-24T01:55:51;4.82;;;2.75;;
37087;SDS011;23002;52.676;6.432;2023-04-24T01:58:18;4.85;;;2.92;;
37087;SDS011;23002;52.676;6.432;2023-04-24T02:00:45;4.60;;;2.58;;
37087;SDS011;23002;52.676;6.432;2023-04-24T02:03:12;5.38;;;3.20;;
37087;SDS011;23002;52.676;6.432;2023-04-24T02:05:40;4.65;;;2.50;;
37087;SDS011;23002;52.676;6.432;2023-04-24T02:08:07;4.72;;;2.53;;
37087;SDS011;23002;52.676;6.432;2023-04-24T02:10:34;7.03;;;3.00;;
37087;SDS011;23002;52.676;6.432;2023-04-24T02:13:01;5.50;;;2.65;;
37087;SDS011;23002;52.676;6.432;2023-04-24T02:15:28;4.47;;;2.95;;
37087;SDS011;23002;52.676;6.432;2023-04-24T02:17:55;5.07;;;2.88;;
37087;SDS011;23002;52.676;6.432;2023-04-24T02:20:23;7.55;;;2.95;;
37087;SDS011;23002;52.676;6.432;2023-04-24T02:22:50;5.35;;;3.28;;
37087;SDS011;23002;52.676;6.432;2023-04-24T02:25:17;4.95;;;2.90;;
37087;SDS011;23002;52.676;6.432;2023-04-24T02:27:44;5.18;;;2.92;;
37087;SDS011;23002;52.676;6.432;2023-04-24T02:30:11;6.55;;;3.08;;
37087;SDS011;23002;52.676;6.432;2023-04-24T02:32:38;6.68;;;2.78;;
37087;SDS011;23002;52.676;6.432;2023-04-24T02:35:05;7.78;;;3.30;;
37087;SDS011;23002;52.676;6.432;2023-04-24T02:37:32;6.70;;;3.08;;
37087;SDS011;23002;52.676;6.432;2023-04-24T02:40:00;6.03;;;3.30;;
37087;SDS011;23002;52.676;6.432;2023-04-24T02:42:27;5.35;;;3.13;;
37087;SDS011;23002;52.676;6.432;2023-04-24T02:44:54;8.20;;;3.15;;
37087;SDS011;23002;52.676;6.432;2023-04-24T02:47:21;5.85;;;3.38;;
37087;SDS011;23002;52.676;6.432;2023-04-24T02:49:48;5.78;;;3.35;;
37087;SDS011;23002;52.676;6.432;2023-04-24T02:52:15;5.53;;;3.40;;
37087;SDS011;23002;52.676;6.432;2023-04-24T02:54:42;5.28;;;3.13;;
37087;SDS011;23002;52.676;6.432;2023-04-24T02:57:10;5.68;;;2.97;;
37087;SDS011;23002;52.676;6.432;2023-04-24T02:59:36;6.20;;;3.40;;
37087;SDS011;23002;52.676;6.432;2023-04-24T03:02:04;6.07;;;3.50;;
37087;SDS011;23002;52.676;6.432;2023-04-24T03:04:31;6.00;;;3.67;;
37087;SDS011;23002;52.676;6.432;2023-04-24T03:06:59;6.35;;;3.30;;
37087;SDS011;23002;52.676;6.432;2023-04-24T03:09:27;6.57;;;3.40;;
37087;SDS011;23002;52.676;6.432;2023-04-24T03:11:56;4.03;;;2.35;;
37087;SDS011;23002;52.676;6.432;2023-04-24T03:14:24;4.47;;;2.38;;
37087;SDS011;23002;52.676;6.432;2023-04-24T03:16:51;5.28;;;2.70;;
37087;SDS011;23002;52.676;6.432;2023-04-24T03:19:18;5.20;;;2.60;;
37087;SDS011;23002;52.676;6.432;2023-04-24T03:21:45;5.03;;;3.13;;
37087;SDS011;23002;52.676;6.432;2023-04-24T03:24:12;5.28;;;2.85;;
37087;SDS011;23002;52.676;6.432;2023-04-24T03:26:39;4.88;;;2.72;;
37087;SDS011;23002;52.676;6.432;2023-04-24T03:29:07;4.90;;;2.85;;
37087;SDS011;23002;52.676;6.432;2023-04-24T03:31:34;4.15;;;2.05;;
37087;SDS011;23002;52.676;6.432;2023-04-24T03:34:01;4.70;;;2.40;;
37087;SDS011;23002;52.676;6.432;2023-04-24T03:36:28;5.78;;;3.03;;
37087;SDS011;23002;52.676;6.432;2023-04-24T03:38:56;5.72;;;2.83;;
37087;SDS011;23002;52.676;6.432;2023-04-24T03:41:23;5.75;;;2.70;;
37087;SDS011;23002;52.676;6.432;2023-04-24T03:43:50;4.90;;;2.72;;
37087;SDS011;23002;52.676;6.432;2023-04-24T03:46:17;4.80;;;2.90;;
37087;SDS011;23002;52.676;6.432;2023-04-24T03:48:44;4.78;;;2.95;;
37087;SDS011;23002;52.676;6.432;2023-04-24T03:51:11;5.10;;;2.78;;
37087;SDS011;23002;52.676;6.432;2023-04-24T03:53:38;5.65;;;2.88;;
37087;SDS011;23002;52.676;6.432;2023-04-24T03:56:05;5.30;;;2.85;;
37087;SDS011;23002;52.676;6.432;2023-04-24T03:58:32;4.47;;;2.72;;
37087;SDS011;23002;52.676;6.432;2023-04-24T04:00:59;5.32;;;3.22;;
37087;SDS011;23002;52.676;6.432;2023-04-24T04:03:27;5.50;;;3.33;;
37087;SDS011;23002;52.676;6.432;2023-04-24T04:05:54;5.13;;;3.20;;
37087;SDS011;23002;52.676;6.432;2023-04-24T04:08:21;4.50;;;2.50;;
37087;SDS011;23002;52.676;6.432;2023-04-24T04:10:48;4.43;;;2.45;;
37087;SDS011;23002;52.676;6.432;2023-04-24T04:13:15;4.85;;;1.92;;
37087;SDS011;23002;52.676;6.432;2023-04-24T04:15:43;3.55;;;2.25;;
37087;SDS011;23002;52.676;6.432;2023-04-24T04:18:10;4.15;;;2.22;;
37087;SDS011;23002;52.676;6.432;2023-04-24T04:20:37;3.80;;;1.90;;
37087;SDS011;23002;52.676;6.432;2023-04-24T04:23:04;3.47;;;1.73;;
37087;SDS011;23002;52.676;6.432;2023-04-24T04:25:31;3.25;;;1.83;;
37087;SDS011;23002;52.676;6.432;2023-04-24T04:27:59;2.97;;;1.50;;
37087;SDS011;23002;52.676;6.432;2023-04-24T04:30:26;3.22;;;1.50;;
37087;SDS011;23002;52.676;6.432;2023-04-24T04:32:55;2.88;;;1.17;;
37087;SDS011;23002;52.676;6.432;2023-04-24T04:35:22;2.72;;;1.23;;
37087;SDS011;23002;52.676;6.432;2023-04-24T04:37:49;2.63;;;1.35;;
37087;SDS011;23002;52.676;6.432;2023-04-24T04:40:17;6.18;;;1.15;;
37087;SDS011;23002;52.676;6.432;2023-04-24T04:42:44;1.88;;;1.10;;
37087;SDS011;23002;52.676;6.432;2023-04-24T04:45:12;2.35;;;1.30;;
37087;SDS011;23002;52.676;6.432;2023-04-24T04:47:39;3.03;;;1.55;;
37087;SDS011;23002;52.676;6.432;2023-04-24T04:50:06;3.17;;;1.58;;
37087;SDS011;23002;52.676;6.432;2023-04-24T04:52:34;2.45;;;1.20;;
37087;SDS011;23002;52.676;6.432;2023-04-24T04:55:01;3.40;;;1.30;;
37087;SDS011;23002;52.676;6.432;2023-04-24T04:57:28;2.78;;;1.52;;
37087;SDS011;23002;52.676;6.432;2023-04-24T04:59:56;4.38;;;1.77;;
37087;SDS011;23002;52.676;6.432;2023-04-24T05:02:23;2.88;;;1.65;;
37087;SDS011;23002;52.676;6.432;2023-04-24T05:04:50;3.10;;;1.60;;
37087;SDS011;23002;52.676;6.432;2023-04-24T05:07:18;5.32;;;2.20;;
37087;SDS011;23002;52.676;6.432;2023-04-24T05:09:45;3.63;;;1.73;;
37087;SDS011;23002;52.676;6.432;2023-04-24T05:12:12;3.85;;;1.92;;
37087;SDS011;23002;52.676;6.432;2023-04-24T05:14:39;3.55;;;1.77;;
37087;SDS011;23002;52.676;6.432;2023-04-24T05:17:06;2.95;;;1.60;;
37087;SDS011;23002;52.676;6.432;2023-04-24T05:19:33;2.65;;;1.30;;
37087;SDS011;23002;52.676;6.432;2023-04-24T05:22:03;2.35;;;1.00;;
37087;SDS011;23002;52.676;6.432;2023-04-24T05:24:33;1.52;;;0.80;;
37087;SDS011;23002;52.676;6.432;2023-04-24T05:27:01;1.38;;;0.77;;
37087;SDS011;23002;52.676;6.432;2023-04-24T05:29:28;1.10;;;0.70;;
37087;SDS011;23002;52.676;6.432;2023-04-24T05:31:57;1.35;;;0.80;;
37087;SDS011;23002;52.676;6.432;2023-04-24T05:34:24;1.20;;;0.70;;
37087;SDS011;23002;52.676;6.432;2023-04-24T05:36:52;1.70;;;0.90;;
37087;SDS011;23002;52.676;6.432;2023-04-24T05:39:19;1.65;;;0.95;;
37087;SDS011;23002;52.676;6.432;2023-04-24T05:41:46;1.35;;;0.82;;
37087;SDS011;23002;52.676;6.432;2023-04-24T05:44:13;2.10;;;0.95;;
37087;SDS011;23002;52.676;6.432;2023-04-24T05:46:40;1.48;;;0.82;;
37087;SDS011;23002;52.676;6.432;2023-04-24T05:49:07;3.10;;;1.85;;
37087;SDS011;23002;52.676;6.432;2023-04-24T05:51:35;2.53;;;1.27;;
37087;SDS011;23002;52.676;6.432;2023-04-24T05:54:02;3.50;;;1.20;;
37087;SDS011;23002;52.676;6.432;2023-04-24T05:56:29;5.70;;;2.20;;
37087;SDS011;23002;52.676;6.432;2023-04-24T05:58:56;3.35;;;1.88;;
37087;SDS011;23002;52.676;6.432;2023-04-24T06:01:23;2.17;;;1.50;;
37087;SDS011;23002;52.676;6.432;2023-04-24T06:03:51;2.45;;;1.20;;
37087;SDS011;23002;52.676;6.432;2023-04-24T06:06:19;2.47;;;1.10;;
37087;SDS011;23002;52.676;6.432;2023-04-24T06:08:46;5.00;;;1.25;;
37087;SDS011;23002;52.676;6.432;2023-04-24T06:11:14;2.13;;;1.23;;
37087;SDS011;23002;52.676;6.432;2023-04-24T06:13:41;2.20;;;1.10;;
37087;SDS011;23002;52.676;6.432;2023-04-24T06:16:08;1.90;;;0.90;;
37087;SDS011;23002;52.676;6.432;2023-04-24T06:18:35;1.08;;;0.70;;
37087;SDS011;23002;52.676;6.432;2023-04-24T06:21:03;2.00;;;1.00;;
37087;SDS011;23002;52.676;6.432;2023-04-24T06:23:31;1.52;;;1.00;;
37087;SDS011;23002;52.676;6.432;2023-04-24T06:25:59;1.63;;;0.70;;
37087;SDS011;23002;52.676;6.432;2023-04-24T06:28:26;1.45;;;0.68;;
37087;SDS011;23002;52.676;6.432;2023-04-24T06:30:53;0.98;;;0.65;;
37087;SDS011;23002;52.676;6.432;2023-04-24T06:33:20;1.98;;;1.10;;
37087;SDS011;23002;52.676;6.432;2023-04-24T06:35:49;3.53;;;1.15;;
37087;SDS011;23002;52.676;6.432;2023-04-24T06:38:16;2.83;;;1.60;;
37087;SDS011;23002;52.676;6.432;2023-04-24T06:40:43;3.15;;;1.75;;
37087;SDS011;23002;52.676;6.432;2023-04-24T06:43:10;3.65;;;2.08;;
37087;SDS011;23002;52.676;6.432;2023-04-24T06:45:38;3.15;;;1.52;;
37087;SDS011;23002;52.676;6.432;2023-04-24T06:48:06;4.20;;;1.95;;
37087;SDS011;23002;52.676;6.432;2023-04-24T06:50:33;4.53;;;1.60;;
37087;SDS011;23002;52.676;6.432;2023-04-24T06:53:00;4.18;;;1.70;;
37087;SDS011;23002;52.676;6.432;2023-04-24T06:55:27;4.47;;;1.73;;
37087;SDS011;23002;52.676;6.432;2023-04-24T06:57:54;4.43;;;1.70;;
37087;SDS011;23002;52.676;6.432;2023-04-24T07:00:21;3.85;;;1.67;;
37087;SDS011;23002;52.676;6.432;2023-04-24T07:02:50;4.18;;;1.45;;
37087;SDS011;23002;52.676;6.432;2023-04-24T07:05:18;4.78;;;1.90;;
37087;SDS011;23002;52.676;6.432;2023-04-24T07:07:46;4.72;;;1.60;;
37087;SDS011;23002;52.676;6.432;2023-04-24T07:10:15;4.07;;;2.08;;
37087;SDS011;23002;52.676;6.432;2023-04-24T07:12:42;6.60;;;2.00;;
37087;SDS011;23002;52.676;6.432;2023-04-24T07:15:09;5.45;;;2.22;;
37087;SDS011;23002;52.676;6.432;2023-04-24T07:17:36;3.80;;;1.73;;
37087;SDS011;23002;52.676;6.432;2023-04-24T07:20:04;3.65;;;1.38;;
37087;SDS011;23002;52.676;6.432;2023-04-24T07:22:34;5.32;;;1.85;;
37087;SDS011;23002;52.676;6.432;2023-04-24T07:25:01;5.32;;;1.40;;
37087;SDS011;23002;52.676;6.432;2023-04-24T07:27:29;5.78;;;1.58;;
37087;SDS011;23002;52.676;6.432;2023-04-24T07:29:56;6.78;;;1.00;;
37087;SDS011;23002;52.676;6.432;2023-04-24T07:32:23;0.25;;;0.25;;
37087;SDS011;23002;52.676;6.432;2023-04-24T07:34:50;0.17;;;0.17;;
37087;SDS011;23002;52.676;6.432;2023-04-24T07:37:17;0.63;;;0.63;;
37087;SDS011;23002;52.676;6.432;2023-04-24T07:39:44;0.52;;;0.52;;
37087;SDS011;23002;52.676;6.432;2023-04-24T07:42:11;0.03;;;0.03;;
37087;SDS011;23002;52.676;6.432;2023-04-24T07:44:38;0.43;;;0.43;;
37087;SDS011;23002;52.676;6.432;2023-04-24T07:47:05;0.20;;;0.20;;
37087;SDS011;23002;52.676;6.432;2023-04-24T07:49:32;0.73;;;0.73;;
37087;SDS011;23002;52.676;6.432;2023-04-24T07:52:00;0.10;;;0.10;;
37087;SDS011;23002;52.676;6.432;2023-04-24T07:54:28;0.10;;;0.10;;
37087;SDS011;23002;52.676;6.432;2023-04-24T07:56:55;0.30;;;0.30;;
37087;SDS011;23002;52.676;6.432;2023-04-24T07:59:23;0.15;;;0.15;;
37087;SDS011;23002;52.676;6.432;2023-04-24T08:01:50;0.10;;;0.10;;
37087;SDS011;23002;52.676;6.432;2023-04-24T08:04:17;0.10;;;0.10;;
37087;SDS011;23002;52.676;6.432;2023-04-24T08:06:44;0.05;;;0.05;;
37087;SDS011;23002;52.676;6.432;2023-04-24T08:09:11;1.42;;;0.30;;
37087;SDS011;23002;52.676;6.432;2023-04-24T08:11:38;0.30;;;0.30;;
37087;SDS011;23002;52.676;6.432;2023-04-24T08:14:06;0.10;;;0.10;;
37087;SDS011;23002;52.676;6.432;2023-04-24T08:16:33;0.40;;;0.40;;
37087;SDS011;23002;52.676;6.432;2023-04-24T08:19:00;0.20;;;0.15;;
37087;SDS011;23002;52.676;6.432;2023-04-24T08:21:27;0.20;;;0.20;;
37087;SDS011;23002;52.676;6.432;2023-04-24T08:23:54;0.20;;;0.20;;
37087;SDS011;23002;52.676;6.432;2023-04-24T08:26:21;0.47;;;0.47;;
37087;SDS011;23002;52.676;6.432;2023-04-24T08:28:49;0.63;;;0.63;;
37087;SDS011;23002;52.676;6.432;2023-04-24T08:31:16;0.55;;;0.55;;
37087;SDS011;23002;52.676;6.432;2023-04-24T08:33:43;0.90;;;0.77;;
37087;SDS011;23002;52.676;6.432;2023-04-24T08:36:11;0.30;;;0.30;;
37087;SDS011;23002;52.676;6.432;2023-04-24T08:38:39;0.73;;;0.73;;
37087;SDS011;23002;52.676;6.432;2023-04-24T08:41:08;0.55;;;0.55;;
37087;SDS011;23002;52.676;6.432;2023-04-24T08:43:36;0.85;;;0.85;;
37087;SDS011;23002;52.676;6.432;2023-04-24T08:46:03;1.33;;;0.85;;
37087;SDS011;23002;52.676;6.432;2023-04-24T08:48:36;1.25;;;0.75;;
37087;SDS011;23002;52.676;6.432;2023-04-24T08:51:06;0.30;;;0.30;;
37087;SDS011;23002;52.676;6.432;2023-04-24T08:53:34;0.77;;;0.77;;
37087;SDS011;23002;52.676;6.432;2023-04-24T08:56:02;0.63;;;0.63;;
37087;SDS011;23002;52.676;6.432;2023-04-24T08:58:29;1.08;;;0.98;;
37087;SDS011;23002;52.676;6.432;2023-04-24T09:00:57;0.50;;;0.50;;
37087;SDS011;23002;52.676;6.432;2023-04-24T09:03:26;0.43;;;0.43;;
37087;SDS011;23002;52.676;6.432;2023-04-24T09:05:54;1.92;;;1.45;;
37087;SDS011;23002;52.676;6.432;2023-04-24T09:08:23;1.02;;;1.02;;
37087;SDS011;23002;52.676;6.432;2023-04-24T09:10:50;1.50;;;1.30;;
37087;SDS011;23002;52.676;6.432;2023-04-24T09:13:18;2.15;;;2.05;;
37087;SDS011;23002;52.676;6.432;2023-04-24T09:15:46;0.43;;;0.43;;
37087;SDS011;23002;52.676;6.432;2023-04-24T09:18:13;1.27;;;1.23;;
37087;SDS011;23002;52.676;6.432;2023-04-24T09:23:27;0.10;;;0.10;;
37087;SDS011;23002;52.676;6.432;2023-04-24T09:25:55;0.85;;;0.65;;
37087;SDS011;23002;52.676;6.432;2023-04-24T09:28:26;0.25;;;0.25;;
37087;SDS011;23002;52.676;6.432;2023-04-24T09:31:07;0.25;;;0.25;;
37087;SDS011;23002;52.676;6.432;2023-04-24T09:33:34;4.80;;;1.20;;
37087;SDS011;23002;52.676;6.432;2023-04-24T09:36:02;0.70;;;0.70;;
37087;SDS011;23002;52.676;6.432;2023-04-24T09:38:35;1.35;;;1.20;;
37087;SDS011;23002;52.676;6.432;2023-04-24T09:41:06;0.93;;;0.73;;
37087;SDS011;23002;52.676;6.432;2023-04-24T09:43:34;2.47;;;1.33;;
37087;SDS011;23002;52.676;6.432;2023-04-24T09:46:06;1.17;;;1.08;;
37087;SDS011;23002;52.676;6.432;2023-04-24T09:48:36;0.45;;;0.45;;
37087;SDS011;23002;52.676;6.432;2023-04-24T09:51:04;0.10;;;0.10;;
37087;SDS011;23002;52.676;6.432;2023-04-24T09:53:33;1.15;;;0.60;;
37087;SDS011;23002;52.676;6.432;2023-04-24T09:56:10;0.68;;;0.68;;
37087;SDS011;23002;52.676;6.432;2023-04-24T09:58:39;1.08;;;0.70;;
37087;SDS011;23002;52.676;6.432;2023-04-24T10:01:06;0.32;;;0.32;;
37087;SDS011;23002;52.676;6.432;2023-04-24T10:03:33;0.20;;;0.20;;
37087;SDS011;23002;52.676;6.432;2023-04-24T10:06:01;1.58;;;1.48;;
37087;SDS011;23002;52.676;6.432;2023-04-24T10:08:35;1.38;;;1.27;;
37087;SDS011;23002;52.676;6.432;2023-04-24T10:11:02;0.65;;;0.47;;
37087;SDS011;23002;52.676;6.432;2023-04-24T10:13:29;1.02;;;1.00;;
37087;SDS011;23002;52.676;6.432;2023-04-24T10:15:57;0.47;;;0.40;;
37087;SDS011;23002;52.676;6.432;2023-04-24T10:18:26;0.65;;;0.65;;
37087;SDS011;23002;52.676;6.432;2023-04-24T10:20:53;0.50;;;0.50;;
37087;SDS011;23002;52.676;6.432;2023-04-24T10:23:21;0.10;;;0.10;;
37087;SDS011;23002;52.676;6.432;2023-04-24T10:25:49;1.55;;;0.75;;
37087;SDS011;23002;52.676;6.432;2023-04-24T10:28:17;0.55;;;0.32;;
37087;SDS011;23002;52.676;6.432;2023-04-24T10:30:45;0.10;;;0.10;;
37087;SDS011;23002;52.676;6.432;2023-04-24T10:33:13;2.50;;;1.08;;
37087;SDS011;23002;52.676;6.432;2023-04-24T10:35:41;0.10;;;0.10;;
37087;SDS011;23002;52.676;6.432;2023-04-24T10:38:13;0.45;;;0.40;;
37087;SDS011;23002;52.676;6.432;2023-04-24T10:40:41;0.10;;;0.10;;
37087;SDS011;23002;52.676;6.432;2023-04-24T10:43:09;0.10;;;0.10;;
37087;SDS011;23002;52.676;6.432;2023-04-24T10:45:38;0.00;;;0.00;;
37087;SDS011;23002;52.676;6.432;2023-04-24T10:48:06;0.85;;;0.85;;
37087;SDS011;23002;52.676;6.432;2023-04-24T10:50:44;2.33;;;1.25;;
37087;SDS011;23002;52.676;6.432;2023-04-24T10:53:13;0.43;;;0.43;;
37087;SDS011;23002;52.676;6.432;2023-04-24T10:55:47;0.20;;;0.20;;
37087;SDS011;23002;52.676;6.432;2023-04-24T10:58:15;0.10;;;0.10;;
37087;SDS011;23002;52.676;6.432;2023-04-24T11:00:43;0.20;;;0.20;;
37087;SDS011;23002;52.676;6.432;2023-04-24T11:03:24;0.28;;;0.28;;
37087;SDS011;23002;52.676;6.432;2023-04-24T11:05:56;0.10;;;0.10;;
37087;SDS011;23002;52.676;6.432;2023-04-24T11:13:22;0.22;;;0.22;;
37087;SDS011;23002;52.676;6.432;2023-04-24T11:18:43;1.35;;;0.52;;
37087;SDS011;23002;52.676;6.432;2023-04-24T11:21:17;0.00;;;0.00;;
37087;SDS011;23002;52.676;6.432;2023-04-24T11:23:45;9.30;;;1.17;;
37087;SDS011;23002;52.676;6.432;2023-04-24T11:26:14;0.05;;;0.05;;
37087;SDS011;23002;52.676;6.432;2023-04-24T11:28:44;0.03;;;0.03;;
37087;SDS011;23002;52.676;6.432;2023-04-24T11:33:59;0.00;;;0.00;;
37087;SDS011;23002;52.676;6.432;2023-04-24T11:36:32;0.05;;;0.05;;
37087;SDS011;23002;52.676;6.432;2023-04-24T11:38:59;0.10;;;0.10;;
37087;SDS011;23002;52.676;6.432;2023-04-24T11:41:26;0.10;;;0.10;;
37087;SDS011;23002;52.676;6.432;2023-04-24T11:43:54;1.10;;;0.65;;
37087;SDS011;23002;52.676;6.432;2023-04-24T11:46:26;0.10;;;0.10;;
37087;SDS011;23002;52.676;6.432;2023-04-24T11:48:53;0.52;;;0.52;;
37087;SDS011;23002;52.676;6.432;2023-04-24T11:51:20;0.05;;;0.05;;
37087;SDS011;23002;52.676;6.432;2023-04-24T11:53:49;0.10;;;0.10;;
37087;SDS011;23002;52.676;6.432;2023-04-24T11:56:26;1.88;;;1.45;;
37087;SDS011;23002;52.676;6.432;2023-04-24T11:58:53;0.00;;;0.00;;
37087;SDS011;23002;52.676;6.432;2023-04-24T12:01:20;5.93;;;1.77;;
37087;SDS011;23002;52.676;6.432;2023-04-24T12:03:48;0.00;;;0.00;;
37087;SDS011;23002;52.676;6.432;2023-04-24T12:06:17;0.00;;;0.00;;
37087;SDS011;23002;52.676;6.432;2023-04-24T12:08:45;0.05;;;0.05;;
37087;SDS011;23002;52.676;6.432;2023-04-24T12:11:14;0.10;;;0.10;;
37087;SDS011;23002;52.676;6.432;2023-04-24T12:13:41;0.10;;;0.10;;
37087;SDS011;23002;52.676;6.432;2023-04-24T12:16:08;0.10;;;0.10;;
37087;SDS011;23002;52.676;6.432;2023-04-24T12:18:41;0.13;;;0.13;;
37087;SDS011;23002;52.676;6.432;2023-04-24T12:21:18;0.45;;;0.20;;
37087;SDS011;23002;52.676;6.432;2023-04-24T12:23:48;0.20;;;0.20;;
37087;SDS011;23002;52.676;6.432;2023-04-24T12:26:18;0.00;;;0.00;;
37087;SDS011;23002;52.676;6.432;2023-04-24T12:28:49;0.10;;;0.10;;
37087;SDS011;23002;52.676;6.432;2023-04-24T12:31:16;0.00;;;0.00;;
37087;SDS011;23002;52.676;6.432;2023-04-24T12:33:43;0.20;;;0.20;;
37087;SDS011;23002;52.676;6.432;2023-04-24T12:36:11;1.35;;;0.70;;
37087;SDS011;23002;52.676;6.432;2023-04-24T12:38:38;5.40;;;1.15;;
37087;SDS011;23002;52.676;6.432;2023-04-24T12:41:11;1.48;;;1.02;;
37087;SDS011;23002;52.676;6.432;2023-04-24T12:43:38;1.65;;;0.90;;
37087;SDS011;23002;52.676;6.432;2023-04-24T12:46:17;1.58;;;0.63;;
37087;SDS011;23002;52.676;6.432;2023-04-24T12:48:47;5.43;;;1.27;;
37087;SDS011;23002;52.676;6.432;2023-04-24T12:51:14;1.63;;;1.10;;
37087;SDS011;23002;52.676;6.432;2023-04-24T12:53:41;5.97;;;1.00;;
37087;SDS011;23002;52.676;6.432;2023-04-24T12:56:09;2.47;;;0.70;;
37087;SDS011;23002;52.676;6.432;2023-04-24T12:58:36;1.60;;;0.90;;
37087;SDS011;23002;52.676;6.432;2023-04-24T13:01:03;4.35;;;1.17;;
37087;SDS011;23002;52.676;6.432;2023-04-24T13:03:30;4.43;;;1.30;;
37087;SDS011;23002;52.676;6.432;2023-04-24T13:05:57;4.07;;;1.08;;
37087;SDS011;23002;52.676;6.432;2023-04-24T13:08:24;4.82;;;0.80;;
37087;SDS011;23002;52.676;6.432;2023-04-24T13:10:51;2.08;;;0.80;;
37087;SDS011;23002;52.676;6.432;2023-04-24T13:13:19;2.40;;;0.85;;
37087;SDS011;23002;52.676;6.432;2023-04-24T13:15:47;7.50;;;0.80;;
37087;SDS011;23002;52.676;6.432;2023-04-24T13:18:14;6.00;;;0.88;;
37087;SDS011;23002;52.676;6.432;2023-04-24T13:20:41;1.48;;;1.05;;
37087;SDS011;23002;52.676;6.432;2023-04-24T13:23:10;3.30;;;0.85;;
37087;SDS011;23002;52.676;6.432;2023-04-24T13:25:37;6.18;;;0.80;;
37087;SDS011;23002;52.676;6.432;2023-04-24T13:28:05;4.00;;;0.90;;
37087;SDS011;23002;52.676;6.432;2023-04-24T13:30:32;3.92;;;0.63;;
37087;SDS011;23002;52.676;6.432;2023-04-24T13:33:00;1.70;;;0.40;;
37087;SDS011;23002;52.676;6.432;2023-04-24T13:35:27;0.30;;;0.25;;
37087;SDS011;23002;52.676;6.432;2023-04-24T13:37:54;3.05;;;0.40;;
37087;SDS011;23002;52.676;6.432;2023-04-24T13:40:22;3.53;;;0.50;;
37087;SDS011;23002;52.676;6.432;2023-04-24T13:42:49;6.10;;;0.70;;
37087;SDS011;23002;52.676;6.432;2023-04-24T13:45:16;0.77;;;0.45;;
37087;SDS011;23002;52.676;6.432;2023-04-24T13:47:50;3.58;;;0.50;;
37087;SDS011;23002;52.676;6.432;2023-04-24T13:50:18;3.40;;;0.68;;
37087;SDS011;23002;52.676;6.432;2023-04-24T13:52:45;0.85;;;0.50;;
37087;SDS011;23002;52.676;6.432;2023-04-24T13:55:12;2.53;;;0.55;;
37087;SDS011;23002;52.676;6.432;2023-04-24T13:57:39;1.88;;;0.65;;
37087;SDS011;23002;52.676;6.432;2023-04-24T14:00:07;3.55;;;0.68;;
37087;SDS011;23002;52.676;6.432;2023-04-24T14:02:38;5.80;;;1.45;;
37087;SDS011;23002;52.676;6.432;2023-04-24T14:05:05;5.22;;;0.70;;
37087;SDS011;23002;52.676;6.432;2023-04-24T14:07:32;2.35;;;0.75;;
37087;SDS011;23002;52.676;6.432;2023-04-24T14:10:00;6.93;;;1.45;;
37087;SDS011;23002;52.676;6.432;2023-04-24T14:12:27;3.28;;;1.10;;
37087;SDS011;23002;52.676;6.432;2023-04-24T14:14:54;1.90;;;0.80;;
37087;SDS011;23002;52.676;6.432;2023-04-24T14:17:21;5.93;;;1.10;;
37087;SDS011;23002;52.676;6.432;2023-04-24T14:19:48;1.77;;;0.98;;
37087;SDS011;23002;52.676;6.432;2023-04-24T14:22:17;3.42;;;0.90;;
37087;SDS011;23002;52.676;6.432;2023-04-24T14:24:45;6.07;;;1.17;;
37087;SDS011;23002;52.676;6.432;2023-04-24T14:27:12;5.20;;;1.20;;
37087;SDS011;23002;52.676;6.432;2023-04-24T14:29:39;7.97;;;1.20;;
37087;SDS011;23002;52.676;6.432;2023-04-24T14:32:07;3.08;;;1.30;;
37087;SDS011;23002;52.676;6.432;2023-04-24T14:34:35;5.60;;;0.90;;
37087;SDS011;23002;52.676;6.432;2023-04-24T14:37:02;2.85;;;1.10;;
37087;SDS011;23002;52.676;6.432;2023-04-24T14:39:29;6.10;;;1.05;;
37087;SDS011;23002;52.676;6.432;2023-04-24T14:41:56;2.92;;;1.08;;
37087;SDS011;23002;52.676;6.432;2023-04-24T14:44:23;2.35;;;0.95;;
37087;SDS011;23002;52.676;6.432;2023-04-24T14:46:51;4.50;;;1.05;;
37087;SDS011;23002;52.676;6.432;2023-04-24T14:49:18;6.70;;;1.30;;
37087;SDS011;23002;52.676;6.432;2023-04-24T14:51:45;3.17;;;1.15;;
37087;SDS011;23002;52.676;6.432;2023-04-24T14:54:12;4.10;;;1.20;;
37087;SDS011;23002;52.676;6.432;2023-04-24T14:56:39;5.90;;;1.60;;
37087;SDS011;23002;52.676;6.432;2023-04-24T14:59:07;4.07;;;1.33;;
37087;SDS011;23002;52.676;6.432;2023-04-24T15:01:34;7.43;;;1.40;;
37087;SDS011;23002;52.676;6.432;2023-04-24T15:04:01;3.53;;;1.27;;